EWG2WZ LEIB-EDDS
Flight info
| Callsign | EWG2WZ |
|---|---|
| Flight time | 1h 48m |
| Altitude | 38000 |
| Route | KABRE DCT ELTAN N853 LUMAS DCT UNANA DCT STP DCT RAPED DCT PIGOS DCT EKSID DCT NOSTA DCT NOPMU DCT ABESI DCT UTAVO DCT SOPER N851 ROMIR T125 REUTL REUTL1W |
| Aircraft | A319/M-SDE3FGHIRWY/LB1 |
Departure
| Time | 2026-05-07 12:30 |
|---|---|
| Airport | Ibiza Airport (LEIB) |
Arrival
| Time | 2026-05-07 14:18 |
|---|---|
| Airport | Stuttgart Airport (EDDS) |
| Time | Latitude | Longitude | Altitude | Speed | Heading |
|---|---|---|---|---|---|
| 2026-05-07 12:22 | 38.87405 | 1.36501 | 9 ft | 0 kts | 12° |
| 2026-05-07 12:24 | 38.87406 | 1.36501 | 9 ft | 1 kts | 12° |
| 2026-05-07 12:25 | 38.87413 | 1.36511 | 9 ft | 2 kts | 66° |
| 2026-05-07 12:25 | 38.87403 | 1.36534 | 10 ft | 4 kts | 142° |
| 2026-05-07 12:25 | 38.87364 | 1.36555 | 10 ft | 8 kts | 156° |
| 2026-05-07 12:25 | 38.87362 | 1.36620 | 9 ft | 9 kts | 62° |
| 2026-05-07 12:26 | 38.87400 | 1.36706 | 9 ft | 13 kts | 62° |
| 2026-05-07 12:26 | 38.87418 | 1.36782 | 9 ft | 8 kts | 117° |
| 2026-05-07 12:26 | 38.87361 | 1.36825 | 9 ft | 11 kts | 155° |
| 2026-05-07 12:26 | 38.87294 | 1.36861 | 9 ft | 8 kts | 183° |
| 2026-05-07 12:27 | 38.87259 | 1.36798 | 10 ft | 10 kts | 242° |
| 2026-05-07 12:27 | 38.87223 | 1.36710 | 9 ft | 12 kts | 242° |
| 2026-05-07 12:27 | 38.87180 | 1.36606 | 8 ft | 14 kts | 242° |
| 2026-05-07 12:27 | 38.87131 | 1.36486 | 8 ft | 16 kts | 243° |
| 2026-05-07 12:28 | 38.87076 | 1.36347 | 9 ft | 19 kts | 243° |
| 2026-05-07 12:28 | 38.87010 | 1.36190 | 8 ft | 21 kts | 242° |
| 2026-05-07 12:28 | 38.86937 | 1.36014 | 8 ft | 23 kts | 242° |
| 2026-05-07 12:28 | 38.86863 | 1.35836 | 8 ft | 15 kts | 241° |
| 2026-05-07 12:29 | 38.86780 | 1.35845 | 7 ft | 15 kts | 148° |
| 2026-05-07 12:29 | 38.86725 | 1.35954 | 8 ft | 18 kts | 73° |
| 2026-05-07 12:29 | 38.86827 | 1.36206 | 6 ft | 58 kts | 62° |
| 2026-05-07 12:29 | 38.87109 | 1.36893 | 11 ft | 115 kts | 62° |
| 2026-05-07 12:30 | 38.87538 | 1.37950 | 279 ft | 138 kts | 65° |
| 2026-05-07 12:30 | 38.87980 | 1.39046 | 891 ft | 140 kts | 68° |
| 2026-05-07 12:30 | 38.88333 | 1.40233 | 1459 ft | 148 kts | 75° |
| 2026-05-07 12:30 | 38.88582 | 1.41624 | 1863 ft | 171 kts | 76° |
| 2026-05-07 12:31 | 38.88865 | 1.43215 | 2278 ft | 195 kts | 77° |
| 2026-05-07 12:31 | 38.89176 | 1.44962 | 3079 ft | 204 kts | 77° |
| 2026-05-07 12:31 | 38.89499 | 1.46762 | 4018 ft | 208 kts | 77° |
| 2026-05-07 12:31 | 38.89827 | 1.48584 | 4956 ft | 211 kts | 77° |
| 2026-05-07 12:32 | 38.90161 | 1.50444 | 5875 ft | 215 kts | 77° |
| 2026-05-07 12:32 | 38.90501 | 1.52336 | 6755 ft | 221 kts | 77° |
| 2026-05-07 12:32 | 38.90769 | 1.54293 | 7647 ft | 224 kts | 88° |
| 2026-05-07 12:32 | 38.90666 | 1.56370 | 8237 ft | 245 kts | 98° |
| 2026-05-07 12:33 | 38.90211 | 1.61059 | 9579 ft | 277 kts | 98° |
| 2026-05-07 12:33 | 38.90053 | 1.62695 | 10150 ft | 281 kts | 98° |
| 2026-05-07 12:33 | 38.89792 | 1.65200 | 11013 ft | 284 kts | 103° |
| 2026-05-07 12:34 | 38.89192 | 1.67649 | 11697 ft | 296 kts | 115° |
| 2026-05-07 12:34 | 38.88298 | 1.70142 | 12037 ft | 318 kts | 116° |
| 2026-05-07 12:34 | 38.87341 | 1.72756 | 12656 ft | 329 kts | 116° |
| 2026-05-07 12:34 | 38.86362 | 1.75427 | 13427 ft | 334 kts | 116° |
| 2026-05-07 12:35 | 38.85369 | 1.78148 | 14170 ft | 338 kts | 117° |
| 2026-05-07 12:35 | 38.84369 | 1.80901 | 14848 ft | 343 kts | 117° |
| 2026-05-07 12:35 | 38.83351 | 1.83704 | 15507 ft | 349 kts | 117° |
| 2026-05-07 12:35 | 38.82315 | 1.86557 | 16153 ft | 355 kts | 116° |
| 2026-05-07 12:36 | 38.81514 | 1.89577 | 16791 ft | 364 kts | 104° |
| 2026-05-07 12:36 | 38.81255 | 1.92830 | 17419 ft | 372 kts | 90° |
| 2026-05-07 12:36 | 38.81601 | 1.96148 | 18067 ft | 379 kts | 76° |
| 2026-05-07 12:36 | 38.82520 | 1.99341 | 18664 ft | 385 kts | 67° |
| 2026-05-07 12:37 | 38.83591 | 2.02510 | 19254 ft | 389 kts | 67° |
| 2026-05-07 12:37 | 38.84673 | 2.05719 | 19833 ft | 394 kts | 68° |
| 2026-05-07 12:37 | 38.85762 | 2.08963 | 20397 ft | 399 kts | 68° |
| 2026-05-07 12:37 | 38.86865 | 2.12263 | 20955 ft | 404 kts | 68° |
| 2026-05-07 12:38 | 38.87978 | 2.15598 | 21501 ft | 409 kts | 69° |
| 2026-05-07 12:38 | 38.89102 | 2.18973 | 22063 ft | 414 kts | 69° |
| 2026-05-07 12:38 | 38.90239 | 2.22390 | 22608 ft | 418 kts | 69° |
| 2026-05-07 12:38 | 38.91388 | 2.25844 | 23168 ft | 423 kts | 69° |
| 2026-05-07 12:39 | 38.92552 | 2.29342 | 23654 ft | 428 kts | 69° |
| 2026-05-07 12:39 | 38.93729 | 2.32876 | 24071 ft | 433 kts | 69° |
| 2026-05-07 12:39 | 38.94919 | 2.36451 | 24506 ft | 437 kts | 69° |
| 2026-05-07 12:39 | 38.96122 | 2.40068 | 24946 ft | 441 kts | 70° |
| 2026-05-07 12:40 | 38.97326 | 2.43710 | 25385 ft | 444 kts | 70° |
| 2026-05-07 12:40 | 38.98536 | 2.47387 | 25829 ft | 448 kts | 70° |
| 2026-05-07 12:40 | 38.99755 | 2.51089 | 26252 ft | 452 kts | 70° |
| 2026-05-07 12:40 | 39.00985 | 2.54821 | 26683 ft | 455 kts | 70° |
| 2026-05-07 12:41 | 39.02222 | 2.58572 | 27095 ft | 459 kts | 70° |
| 2026-05-07 12:41 | 39.03469 | 2.62362 | 27518 ft | 462 kts | 70° |
| 2026-05-07 12:41 | 39.04713 | 2.66146 | 27939 ft | 466 kts | 70° |
| 2026-05-07 12:41 | 39.05979 | 2.70000 | 28282 ft | 471 kts | 70° |
| 2026-05-07 12:42 | 39.07261 | 2.73913 | 28620 ft | 476 kts | 71° |
| 2026-05-07 12:42 | 39.08548 | 2.77846 | 29002 ft | 480 kts | 71° |
| 2026-05-07 12:42 | 39.09850 | 2.81832 | 29413 ft | 483 kts | 71° |
| 2026-05-07 12:42 | 39.11157 | 2.85839 | 29827 ft | 487 kts | 71° |
| 2026-05-07 12:43 | 39.12474 | 2.89879 | 30205 ft | 490 kts | 71° |
| 2026-05-07 12:43 | 39.13796 | 2.93938 | 30525 ft | 493 kts | 71° |
| 2026-05-07 12:43 | 39.15162 | 2.97998 | 30855 ft | 497 kts | 69° |
| 2026-05-07 12:43 | 39.16662 | 3.02035 | 31175 ft | 501 kts | 67° |
| 2026-05-07 12:44 | 39.18265 | 3.06035 | 31470 ft | 504 kts | 65° |
| 2026-05-07 12:44 | 39.19927 | 3.10028 | 31717 ft | 509 kts | 65° |
| 2026-05-07 12:44 | 39.21609 | 3.14053 | 32072 ft | 510 kts | 65° |
| 2026-05-07 12:44 | 39.23275 | 3.18100 | 32512 ft | 510 kts | 66° |
| 2026-05-07 12:45 | 39.24909 | 3.22154 | 32965 ft | 509 kts | 67° |
| 2026-05-07 12:45 | 39.26515 | 3.26224 | 33423 ft | 508 kts | 68° |
| 2026-05-07 12:45 | 39.28103 | 3.30295 | 33880 ft | 508 kts | 68° |
| 2026-05-07 12:45 | 39.29682 | 3.34359 | 34276 ft | 507 kts | 68° |
| 2026-05-07 12:46 | 39.31268 | 3.38432 | 34697 ft | 507 kts | 67° |
| 2026-05-07 12:46 | 39.32858 | 3.42501 | 35090 ft | 507 kts | 67° |
| 2026-05-07 12:46 | 39.34446 | 3.46558 | 35479 ft | 506 kts | 66° |
| 2026-05-07 12:46 | 39.36034 | 3.50613 | 35878 ft | 505 kts | 66° |
| 2026-05-07 12:47 | 39.37622 | 3.54668 | 36256 ft | 504 kts | 66° |
| 2026-05-07 12:47 | 39.39199 | 3.58708 | 36636 ft | 503 kts | 66° |
| 2026-05-07 12:47 | 39.40772 | 3.62747 | 37010 ft | 502 kts | 66° |
| 2026-05-07 12:47 | 39.42339 | 3.66783 | 37371 ft | 501 kts | 66° |
| 2026-05-07 12:48 | 39.43900 | 3.70811 | 37731 ft | 501 kts | 66° |
| 2026-05-07 12:48 | 39.45462 | 3.74841 | 37931 ft | 501 kts | 66° |
| 2026-05-07 12:48 | 39.48579 | 3.82898 | 37946 ft | 501 kts | 65° |
| 2026-05-07 12:49 | 39.51702 | 3.90985 | 37984 ft | 503 kts | 66° |
| 2026-05-07 12:49 | 39.54808 | 3.99045 | 37957 ft | 502 kts | 66° |
| 2026-05-07 12:50 | 39.58037 | 4.07063 | 37973 ft | 503 kts | 58° |
| 2026-05-07 12:50 | 39.60173 | 4.10645 | 37978 ft | 504 kts | 46° |
| 2026-05-07 12:50 | 39.62757 | 4.13707 | 37981 ft | 502 kts | 35° |
| 2026-05-07 12:51 | 39.65689 | 4.16125 | 37974 ft | 499 kts | 24° |
| 2026-05-07 12:51 | 39.68868 | 4.17851 | 37979 ft | 494 kts | 13° |
| 2026-05-07 12:51 | 39.75545 | 4.19513 | 37983 ft | 487 kts | 3° |
| 2026-05-07 12:52 | 39.82257 | 4.20818 | 37988 ft | 488 kts | 3° |
| 2026-05-07 12:52 | 39.88970 | 4.22158 | 38000 ft | 489 kts | 4° |
| 2026-05-07 12:53 | 39.95677 | 4.23717 | 38030 ft | 490 kts | 5° |
| 2026-05-07 12:53 | 40.02377 | 4.25376 | 38019 ft | 489 kts | 6° |
| 2026-05-07 12:54 | 40.09068 | 4.26983 | 37986 ft | 489 kts | 5° |
| 2026-05-07 12:54 | 40.15757 | 4.28548 | 37988 ft | 488 kts | 5° |
| 2026-05-07 12:55 | 40.22451 | 4.30117 | 38009 ft | 488 kts | 5° |
| 2026-05-07 12:55 | 40.29138 | 4.31689 | 38002 ft | 488 kts | 5° |
| 2026-05-07 12:56 | 40.35811 | 4.33275 | 37999 ft | 487 kts | 5° |
| 2026-05-07 12:56 | 40.42446 | 4.34859 | 38025 ft | 487 kts | 5° |
| 2026-05-07 12:57 | 40.49108 | 4.36441 | 38014 ft | 487 kts | 5° |
| 2026-05-07 12:57 | 40.55776 | 4.38029 | 38008 ft | 486 kts | 5° |
| 2026-05-07 12:58 | 40.62430 | 4.39628 | 38009 ft | 486 kts | 5° |
| 2026-05-07 12:58 | 40.69082 | 4.41227 | 38008 ft | 486 kts | 5° |
| 2026-05-07 12:59 | 40.75735 | 4.42825 | 38005 ft | 486 kts | 5° |
| 2026-05-07 12:59 | 40.82387 | 4.44420 | 38013 ft | 485 kts | 5° |
| 2026-05-07 13:00 | 40.89026 | 4.46012 | 38017 ft | 485 kts | 5° |
| 2026-05-07 13:00 | 40.95679 | 4.47613 | 38016 ft | 485 kts | 5° |
| 2026-05-07 13:01 | 41.02327 | 4.49229 | 38015 ft | 485 kts | 5° |
| 2026-05-07 13:01 | 41.08966 | 4.50855 | 38032 ft | 485 kts | 6° |
| 2026-05-07 13:02 | 41.15606 | 4.52471 | 38021 ft | 485 kts | 5° |
| 2026-05-07 13:02 | 41.22258 | 4.54087 | 38018 ft | 485 kts | 5° |
| 2026-05-07 13:03 | 41.28896 | 4.55715 | 38036 ft | 486 kts | 6° |
| 2026-05-07 13:03 | 41.35542 | 4.57354 | 38027 ft | 485 kts | 6° |
| 2026-05-07 13:04 | 41.42190 | 4.58986 | 38012 ft | 485 kts | 5° |
| 2026-05-07 13:04 | 41.48821 | 4.60620 | 38039 ft | 485 kts | 5° |
| 2026-05-07 13:05 | 41.55460 | 4.62252 | 38033 ft | 484 kts | 5° |
| 2026-05-07 13:05 | 41.62086 | 4.63883 | 38028 ft | 484 kts | 5° |
| 2026-05-07 13:06 | 41.68687 | 4.65640 | 38042 ft | 487 kts | 12° |
| 2026-05-07 13:06 | 41.74873 | 4.69448 | 38038 ft | 495 kts | 32° |
| 2026-05-07 13:07 | 41.80058 | 4.75544 | 38031 ft | 497 kts | 44° |
| 2026-05-07 13:07 | 41.84979 | 4.82046 | 38020 ft | 497 kts | 43° |
| 2026-05-07 13:08 | 41.89903 | 4.88550 | 38025 ft | 497 kts | 43° |
| 2026-05-07 13:08 | 41.94790 | 4.95030 | 38026 ft | 496 kts | 43° |
| 2026-05-07 13:09 | 41.99704 | 5.01556 | 38014 ft | 496 kts | 43° |
| 2026-05-07 13:09 | 42.04605 | 5.08101 | 38004 ft | 496 kts | 43° |
| 2026-05-07 13:10 | 42.09499 | 5.14650 | 38028 ft | 496 kts | 43° |
| 2026-05-07 13:10 | 42.14423 | 5.21244 | 38032 ft | 496 kts | 43° |
| 2026-05-07 13:11 | 42.19315 | 5.27801 | 38027 ft | 496 kts | 43° |
| 2026-05-07 13:11 | 42.24168 | 5.34320 | 38009 ft | 495 kts | 43° |
| 2026-05-07 13:12 | 42.29039 | 5.40901 | 38028 ft | 496 kts | 43° |
| 2026-05-07 13:12 | 42.33910 | 5.47504 | 38023 ft | 495 kts | 43° |
| 2026-05-07 13:13 | 42.38775 | 5.54095 | 38025 ft | 495 kts | 43° |
| 2026-05-07 13:13 | 42.43637 | 5.60694 | 38025 ft | 495 kts | 44° |
| 2026-05-07 13:14 | 42.48496 | 5.67307 | 38036 ft | 495 kts | 43° |
| 2026-05-07 13:14 | 42.53352 | 5.73928 | 38014 ft | 494 kts | 43° |
| 2026-05-07 13:15 | 42.58199 | 5.80543 | 38015 ft | 494 kts | 43° |
| 2026-05-07 13:15 | 42.63033 | 5.87182 | 38015 ft | 494 kts | 44° |
| 2026-05-07 13:16 | 42.67040 | 5.92698 | 38015 ft | 494 kts | 44° |
| 2026-05-07 13:16 | 42.71871 | 5.99350 | 38012 ft | 494 kts | 44° |
| 2026-05-07 13:17 | 42.76694 | 6.06009 | 38011 ft | 494 kts | 44° |
| 2026-05-07 13:17 | 42.81515 | 6.12683 | 37988 ft | 494 kts | 44° |
| 2026-05-07 13:18 | 42.86410 | 6.19237 | 38018 ft | 492 kts | 37° |
| 2026-05-07 13:18 | 42.91694 | 6.25260 | 38020 ft | 492 kts | 37° |
| 2026-05-07 13:19 | 42.96908 | 6.31224 | 38017 ft | 491 kts | 37° |
| 2026-05-07 13:19 | 43.02132 | 6.37235 | 38014 ft | 491 kts | 38° |
| 2026-05-07 13:20 | 43.07353 | 6.43259 | 38027 ft | 491 kts | 38° |
| 2026-05-07 13:20 | 43.12564 | 6.49282 | 38007 ft | 490 kts | 38° |
| 2026-05-07 13:21 | 43.17774 | 6.55306 | 37996 ft | 490 kts | 38° |
| 2026-05-07 13:21 | 43.22721 | 6.61730 | 37996 ft | 493 kts | 50° |
| 2026-05-07 13:22 | 43.26771 | 6.69325 | 38010 ft | 493 kts | 53° |
| 2026-05-07 13:22 | 43.30805 | 6.76933 | 38008 ft | 492 kts | 53° |
| 2026-05-07 13:23 | 43.34833 | 6.84537 | 37995 ft | 492 kts | 53° |
| 2026-05-07 13:23 | 43.38833 | 6.92153 | 38000 ft | 492 kts | 53° |
| 2026-05-07 13:24 | 43.42830 | 6.99792 | 38031 ft | 492 kts | 53° |
| 2026-05-07 13:24 | 43.46521 | 7.06852 | 38024 ft | 492 kts | 53° |
| 2026-05-07 13:25 | 43.50135 | 7.13779 | 38021 ft | 491 kts | 53° |
| 2026-05-07 13:26 | 43.54117 | 7.21431 | 38016 ft | 491 kts | 53° |
| 2026-05-07 13:26 | 43.58089 | 7.29082 | 38013 ft | 491 kts | 53° |
| 2026-05-07 13:27 | 43.62060 | 7.36761 | 38034 ft | 491 kts | 53° |
| 2026-05-07 13:27 | 43.66021 | 7.44428 | 38023 ft | 490 kts | 53° |
| 2026-05-07 13:28 | 43.69972 | 7.52098 | 38014 ft | 490 kts | 53° |
| 2026-05-07 13:28 | 43.73914 | 7.59779 | 37994 ft | 490 kts | 53° |
| 2026-05-07 13:29 | 43.77843 | 7.67464 | 38010 ft | 490 kts | 53° |
| 2026-05-07 13:29 | 43.81914 | 7.74935 | 38011 ft | 488 kts | 44° |
| 2026-05-07 13:30 | 43.87044 | 7.80975 | 38008 ft | 484 kts | 34° |
| 2026-05-07 13:30 | 43.92404 | 7.86721 | 38009 ft | 484 kts | 34° |
| 2026-05-07 13:31 | 43.98172 | 7.91190 | 38040 ft | 474 kts | 16° |
| 2026-05-07 13:31 | 44.04401 | 7.94299 | 38028 ft | 472 kts | 15° |
| 2026-05-07 13:32 | 44.10592 | 7.97384 | 38005 ft | 472 kts | 15° |
| 2026-05-07 13:32 | 44.16774 | 8.00488 | 38026 ft | 472 kts | 15° |
| 2026-05-07 13:33 | 44.22913 | 8.03577 | 38029 ft | 472 kts | 15° |
| 2026-05-07 13:33 | 44.29096 | 8.06695 | 38015 ft | 472 kts | 15° |
| 2026-05-07 13:34 | 44.38347 | 8.11354 | 38004 ft | 472 kts | 15° |
| 2026-05-07 13:35 | 44.44518 | 8.14481 | 37992 ft | 471 kts | 15° |
| 2026-05-07 13:35 | 44.50678 | 8.17619 | 37988 ft | 471 kts | 15° |
| 2026-05-07 13:36 | 44.56846 | 8.20764 | 37987 ft | 471 kts | 15° |
| 2026-05-07 13:36 | 44.63010 | 8.23901 | 37989 ft | 472 kts | 15° |
| 2026-05-07 13:37 | 44.69183 | 8.27054 | 37986 ft | 471 kts | 15° |
| 2026-05-07 13:37 | 44.75340 | 8.30204 | 38002 ft | 471 kts | 15° |
| 2026-05-07 13:38 | 44.81497 | 8.33364 | 37993 ft | 471 kts | 15° |
| 2026-05-07 13:38 | 44.87656 | 8.36534 | 37991 ft | 471 kts | 15° |
| 2026-05-07 13:39 | 44.93805 | 8.39708 | 38005 ft | 470 kts | 15° |
| 2026-05-07 13:39 | 44.99955 | 8.42887 | 37997 ft | 470 kts | 15° |
| 2026-05-07 13:40 | 45.06092 | 8.46057 | 37994 ft | 469 kts | 15° |
| 2026-05-07 13:40 | 45.12230 | 8.49239 | 38003 ft | 469 kts | 15° |
| 2026-05-07 13:41 | 45.18360 | 8.52442 | 38006 ft | 469 kts | 15° |
| 2026-05-07 13:41 | 45.24437 | 8.55622 | 38008 ft | 469 kts | 15° |
| 2026-05-07 13:42 | 45.30607 | 8.58855 | 38026 ft | 469 kts | 15° |
| 2026-05-07 13:42 | 45.36739 | 8.62068 | 38020 ft | 469 kts | 15° |
| 2026-05-07 13:43 | 45.42859 | 8.65280 | 38019 ft | 469 kts | 15° |
| 2026-05-07 13:43 | 45.48984 | 8.68501 | 38008 ft | 469 kts | 16° |
| 2026-05-07 13:44 | 45.55101 | 8.71732 | 37997 ft | 469 kts | 16° |
| 2026-05-07 13:44 | 45.61220 | 8.74972 | 38019 ft | 468 kts | 16° |
| 2026-05-07 13:45 | 45.67333 | 8.78214 | 38024 ft | 468 kts | 16° |
| 2026-05-07 13:45 | 45.73432 | 8.81457 | 38002 ft | 468 kts | 16° |
| 2026-05-07 13:46 | 45.79538 | 8.84710 | 38005 ft | 468 kts | 16° |
| 2026-05-07 13:46 | 45.85598 | 8.87937 | 38028 ft | 468 kts | 16° |
| 2026-05-07 13:47 | 45.91710 | 8.91195 | 38024 ft | 468 kts | 16° |
| 2026-05-07 13:47 | 45.97810 | 8.94464 | 38012 ft | 468 kts | 16° |
| 2026-05-07 13:48 | 46.03903 | 8.97754 | 38026 ft | 468 kts | 17° |
| 2026-05-07 13:48 | 46.09995 | 9.01040 | 38020 ft | 467 kts | 17° |
| 2026-05-07 13:49 | 46.16197 | 9.03524 | 38010 ft | 459 kts | 2° |
| 2026-05-07 13:49 | 46.22487 | 9.03400 | 38019 ft | 450 kts | 349° |
| 2026-05-07 13:50 | 46.28743 | 9.02567 | 38007 ft | 451 kts | 350° |
| 2026-05-07 13:50 | 46.34978 | 9.01743 | 37987 ft | 451 kts | 350° |
| 2026-05-07 13:51 | 46.41231 | 9.00916 | 37987 ft | 451 kts | 350° |
| 2026-05-07 13:51 | 46.47468 | 9.00086 | 37993 ft | 451 kts | 350° |
| 2026-05-07 13:52 | 46.53718 | 8.99233 | 37994 ft | 450 kts | 350° |
| 2026-05-07 13:52 | 46.59916 | 8.98390 | 37981 ft | 450 kts | 350° |
| 2026-05-07 13:53 | 46.66200 | 8.97532 | 37998 ft | 450 kts | 350° |
| 2026-05-07 13:53 | 46.72437 | 8.96684 | 38005 ft | 450 kts | 350° |
| 2026-05-07 13:54 | 46.78672 | 8.95841 | 38008 ft | 449 kts | 351° |
| 2026-05-07 13:54 | 46.84867 | 8.95002 | 38027 ft | 450 kts | 351° |
| 2026-05-07 13:55 | 46.91092 | 8.94153 | 38026 ft | 450 kts | 351° |
| 2026-05-07 13:55 | 46.97327 | 8.93299 | 38034 ft | 450 kts | 350° |
| 2026-05-07 13:56 | 47.03558 | 8.92432 | 38037 ft | 450 kts | 350° |
| 2026-05-07 13:56 | 47.09797 | 8.91571 | 38051 ft | 450 kts | 351° |
| 2026-05-07 13:57 | 47.16032 | 8.90715 | 38046 ft | 450 kts | 351° |
| 2026-05-07 13:57 | 47.21218 | 8.90000 | 38041 ft | 450 kts | 351° |
| 2026-05-07 13:58 | 47.27473 | 8.89384 | 38046 ft | 454 kts | 359° |
| 2026-05-07 13:58 | 47.33699 | 8.91317 | 38040 ft | 462 kts | 16° |
| 2026-05-07 13:59 | 47.39763 | 8.94456 | 38036 ft | 463 kts | 16° |
| 2026-05-07 13:59 | 47.45848 | 8.97591 | 38051 ft | 463 kts | 16° |
| 2026-05-07 14:00 | 47.51928 | 9.00716 | 38051 ft | 463 kts | 16° |
| 2026-05-07 14:00 | 47.58013 | 9.03861 | 38049 ft | 462 kts | 16° |
| 2026-05-07 14:01 | 47.64081 | 9.07006 | 38047 ft | 462 kts | 16° |
| 2026-05-07 14:01 | 47.69967 | 9.10882 | 38061 ft | 467 kts | 33° |
| 2026-05-07 14:01 | 47.72415 | 9.14059 | 38003 ft | 468 kts | 46° |
| 2026-05-07 14:02 | 47.74398 | 9.17911 | 36882 ft | 473 kts | 56° |
| 2026-05-07 14:02 | 47.76179 | 9.22084 | 35457 ft | 483 kts | 55° |
| 2026-05-07 14:02 | 47.78330 | 9.25908 | 34362 ft | 479 kts | 39° |
| 2026-05-07 14:02 | 47.81010 | 9.28700 | 33398 ft | 467 kts | 23° |
| 2026-05-07 14:03 | 47.84031 | 9.30243 | 32469 ft | 452 kts | 7° |
| 2026-05-07 14:03 | 47.87081 | 9.30644 | 31564 ft | 442 kts | 0° |
| 2026-05-07 14:03 | 47.90164 | 9.30854 | 30654 ft | 435 kts | 0° |
| 2026-05-07 14:03 | 47.93164 | 9.31062 | 29749 ft | 427 kts | 1° |
| 2026-05-07 14:04 | 47.96111 | 9.31274 | 28738 ft | 421 kts | 1° |
| 2026-05-07 14:04 | 47.99014 | 9.31491 | 27768 ft | 415 kts | 1° |
| 2026-05-07 14:04 | 48.01872 | 9.31713 | 26804 ft | 409 kts | 1° |
| 2026-05-07 14:04 | 48.04655 | 9.31934 | 25883 ft | 403 kts | 1° |
| 2026-05-07 14:05 | 48.07443 | 9.32153 | 24997 ft | 398 kts | 1° |
| 2026-05-07 14:05 | 48.10191 | 9.32362 | 24150 ft | 394 kts | 1° |
| 2026-05-07 14:05 | 48.12913 | 9.32567 | 23288 ft | 389 kts | 0° |
| 2026-05-07 14:05 | 48.15606 | 9.32769 | 22375 ft | 385 kts | 0° |
| 2026-05-07 14:06 | 48.18255 | 9.33004 | 21479 ft | 380 kts | 2° |
| 2026-05-07 14:06 | 48.20875 | 9.33361 | 20596 ft | 376 kts | 4° |
| 2026-05-07 14:06 | 48.23459 | 9.33799 | 19724 ft | 371 kts | 4° |
| 2026-05-07 14:06 | 48.26007 | 9.34265 | 18860 ft | 367 kts | 5° |
| 2026-05-07 14:07 | 48.28521 | 9.34726 | 17994 ft | 362 kts | 4° |
| 2026-05-07 14:07 | 48.31012 | 9.35168 | 17061 ft | 358 kts | 4° |
| 2026-05-07 14:07 | 48.33481 | 9.35590 | 16159 ft | 354 kts | 4° |
| 2026-05-07 14:07 | 48.35911 | 9.36020 | 15266 ft | 350 kts | 7° |
| 2026-05-07 14:08 | 48.38245 | 9.37045 | 14424 ft | 349 kts | 21° |
| 2026-05-07 14:08 | 48.40456 | 9.38523 | 13555 ft | 346 kts | 22° |
| 2026-05-07 14:08 | 48.42636 | 9.39998 | 12680 ft | 342 kts | 22° |
| 2026-05-07 14:08 | 48.44798 | 9.41468 | 11820 ft | 338 kts | 22° |
| 2026-05-07 14:09 | 48.46930 | 9.42920 | 11008 ft | 334 kts | 22° |
| 2026-05-07 14:09 | 48.49000 | 9.44334 | 10579 ft | 319 kts | 22° |
| 2026-05-07 14:09 | 48.50980 | 9.45682 | 10176 ft | 306 kts | 21° |
| 2026-05-07 14:09 | 48.52896 | 9.46986 | 9726 ft | 298 kts | 21° |
| 2026-05-07 14:10 | 48.54774 | 9.48264 | 9575 ft | 296 kts | 21° |
| 2026-05-07 14:10 | 48.56655 | 9.49544 | 9053 ft | 295 kts | 21° |
| 2026-05-07 14:10 | 48.58512 | 9.50807 | 8509 ft | 291 kts | 22° |
| 2026-05-07 14:10 | 48.60348 | 9.52058 | 7970 ft | 287 kts | 22° |
| 2026-05-07 14:11 | 48.62157 | 9.53293 | 7440 ft | 284 kts | 22° |
| 2026-05-07 14:11 | 48.63926 | 9.54503 | 6919 ft | 281 kts | 22° |
| 2026-05-07 14:11 | 48.65720 | 9.55729 | 6390 ft | 278 kts | 22° |
| 2026-05-07 14:11 | 48.67496 | 9.56800 | 5854 ft | 273 kts | 12° |
| 2026-05-07 14:12 | 48.69315 | 9.57158 | 5631 ft | 256 kts | 356° |
| 2026-05-07 14:12 | 48.70998 | 9.56858 | 5569 ft | 232 kts | 343° |
| 2026-05-07 14:12 | 48.72486 | 9.56236 | 5491 ft | 213 kts | 341° |
| 2026-05-07 14:12 | 48.73849 | 9.55552 | 5400 ft | 201 kts | 326° |
| 2026-05-07 14:13 | 48.74626 | 9.53947 | 5577 ft | 193 kts | 279° |
| 2026-05-07 14:13 | 48.74558 | 9.51834 | 5176 ft | 212 kts | 250° |
| 2026-05-07 14:13 | 48.73948 | 9.49746 | 4665 ft | 219 kts | 251° |
| 2026-05-07 14:13 | 48.73517 | 9.47550 | 4290 ft | 216 kts | 257° |
| 2026-05-07 14:14 | 48.73165 | 9.45350 | 4022 ft | 210 kts | 258° |
| 2026-05-07 14:14 | 48.72879 | 9.43214 | 3758 ft | 205 kts | 259° |
| 2026-05-07 14:14 | 48.72540 | 9.41140 | 3489 ft | 201 kts | 257° |
| 2026-05-07 14:14 | 48.72170 | 9.39111 | 3221 ft | 198 kts | 257° |
| 2026-05-07 14:15 | 48.71800 | 9.37133 | 2978 ft | 189 kts | 256° |
| 2026-05-07 14:15 | 48.71454 | 9.35292 | 2714 ft | 174 kts | 256° |
| 2026-05-07 14:15 | 48.71132 | 9.33575 | 2488 ft | 163 kts | 256° |
| 2026-05-07 14:15 | 48.70841 | 9.32036 | 2277 ft | 140 kts | 257° |
| 2026-05-07 14:16 | 48.70588 | 9.30686 | 2081 ft | 129 kts | 257° |
| 2026-05-07 14:16 | 48.70349 | 9.29417 | 1912 ft | 125 kts | 257° |
| 2026-05-07 14:16 | 48.70111 | 9.28152 | 1738 ft | 123 kts | 256° |
| 2026-05-07 14:16 | 48.69880 | 9.26923 | 1587 ft | 122 kts | 257° |
| 2026-05-07 14:17 | 48.69649 | 9.25702 | 1425 ft | 120 kts | 257° |
| 2026-05-07 14:17 | 48.69420 | 9.24492 | 1257 ft | 119 kts | 256° |
| 2026-05-07 14:17 | 48.69218 | 9.23375 | 1210 ft | 97 kts | 253° |
| 2026-05-07 14:17 | 48.69073 | 9.22630 | 1224 ft | 58 kts | 253° |
| 2026-05-07 14:18 | 48.68960 | 9.22031 | 1247 ft | 60 kts | 253° |
| 2026-05-07 14:18 | 48.68843 | 9.21420 | 1263 ft | 62 kts | 254° |
| 2026-05-07 14:18 | 48.68749 | 9.20930 | 1265 ft | 35 kts | 253° |
| 2026-05-07 14:18 | 48.68686 | 9.20591 | 1273 ft | 27 kts | 257° |
| 2026-05-07 14:19 | 48.68684 | 9.20300 | 1278 ft | 22 kts | 282° |
| 2026-05-07 14:19 | 48.68708 | 9.20156 | 1286 ft | 7 kts | 284° |
| 2026-05-07 14:19 | 48.68715 | 9.20115 | 1287 ft | 2 kts | 285° |
| 2026-05-07 14:19 | 48.68717 | 9.20106 | 1287 ft | 0 kts | 288° |
| 2026-05-07 14:20 | 48.68717 | 9.20104 | 1287 ft | 2 kts | 288° |
| 2026-05-07 14:20 | 48.68741 | 9.20034 | 1290 ft | 11 kts | 307° |
| 2026-05-07 14:20 | 48.68765 | 9.19929 | 1294 ft | 11 kts | 274° |
| 2026-05-07 14:21 | 48.68752 | 9.19816 | 1298 ft | 12 kts | 253° |
| 2026-05-07 14:21 | 48.68724 | 9.19677 | 1301 ft | 15 kts | 252° |
| 2026-05-07 14:21 | 48.68692 | 9.19513 | 1306 ft | 18 kts | 253° |
| 2026-05-07 14:21 | 48.68655 | 9.19330 | 1311 ft | 18 kts | 252° |
| 2026-05-07 14:22 | 48.68638 | 9.19214 | 1314 ft | 11 kts | 270° |
| 2026-05-07 14:22 | 48.68696 | 9.19153 | 1318 ft | 11 kts | 343° |
| 2026-05-07 14:22 | 48.68766 | 9.19181 | 1317 ft | 14 kts | 56° |
| 2026-05-07 14:22 | 48.68791 | 9.19299 | 1315 ft | 3 kts | 74° |
| 2026-05-07 14:23 | 48.68801 | 9.19351 | 1314 ft | 7 kts | 74° |
| 2026-05-07 14:23 | 48.68835 | 9.19381 | 1314 ft | 5 kts | 1° |
| 2026-05-07 14:23 | 48.68858 | 9.19373 | 1315 ft | 2 kts | 339° |
| 2026-05-07 14:23 | 48.68878 | 9.19361 | 1315 ft | 5 kts | 341° |
| 2026-05-07 14:24 | 48.68885 | 9.19358 | 1315 ft | 0 kts | 344° |